Time;durP1;ratioP1;P1;durP2;ratioP2;P2;SDS_P1;SDS_P2;PMS_P1;PMS_P2;Temp;Humidity;BMP_temperature;BMP_pressure;BME280_temperature;BME280_humidity;BME280_pressure;Samples;Min_cycle;Max_cycle;Signal;HPM_P1;HPM_P2
2022/07/06 00:01:27;;;;;;;8.48;1.95;;;;;;;15.66;92.76;101938.88;5037574;28;20409;-81
2022/07/06 00:03:52;;;;;;;6.05;1.80;;;;;;;15.63;92.78;101942.66;5049964;28;20036;-81
2022/07/06 00:06:18;;;;;;;6.63;2.03;;;;;;;15.62;92.99;101935.66;5060795;28;20538;-82
2022/07/06 00:08:44;;;;;;;8.30;2.17;;;;;;;15.59;93.29;101934.09;5052985;28;20037;-81
2022/07/06 00:11:10;;;;;;;8.23;2.17;;;;;;;15.58;92.99;101939.56;5068944;28;20040;-81
2022/07/06 00:13:36;;;;;;;8.93;1.98;;;;;;;15.58;92.87;101942.25;5069136;28;20039;-81
2022/07/06 00:16:03;;;;;;;4.85;1.42;;;;;;;15.58;93.08;101945.75;5053637;28;20036;-81
2022/07/06 00:18:28;;;;;;;9.55;2.78;;;;;;;15.54;92.93;101946.19;5053780;28;20105;-76
2022/07/06 00:20:54;;;;;;;9.85;2.22;;;;;;;15.51;92.91;101944.66;5052547;28;20489;-76
2022/07/06 00:23:20;;;;;;;6.97;2.22;;;;;;;15.46;93.00;101945.06;5052495;28;20040;-81
2022/07/06 00:25:47;;;;;;;10.00;2.63;;;;;;;15.44;93.26;101957.69;5052984;28;20051;-81
2022/07/06 00:28:14;;;;;;;8.43;2.08;;;;;;;15.40;93.30;101956.25;5068487;28;20032;-81
2022/07/06 00:30:40;;;;;;;9.40;2.20;;;;;;;15.41;93.32;101959.78;5048637;28;20029;-81
2022/07/06 00:33:06;;;;;;;8.68;2.25;;;;;;;15.36;93.31;101963.72;5065854;28;20186;-81
2022/07/06 00:35:32;;;;;;;6.32;2.00;;;;;;;15.34;93.43;101962.13;5072606;28;20036;-81
2022/07/06 00:37:58;;;;;;;10.40;2.95;;;;;;;15.31;93.56;101952.63;5069550;28;20037;-81
2022/07/06 00:40:24;;;;;;;5.85;2.03;;;;;;;15.33;93.24;101957.81;5032112;28;20072;-81
2022/07/06 00:42:50;;;;;;;9.38;2.08;;;;;;;15.33;93.28;101956.00;5048686;28;20040;-80
2022/07/06 00:45:17;;;;;;;7.57;1.88;;;;;;;15.35;93.18;101958.50;5051271;28;20039;-81
2022/07/06 00:47:44;;;;;;;10.95;2.47;;;;;;;15.37;92.98;101948.53;5068910;28;20563;-80
2022/07/06 00:50:17;;;;;;;7.30;1.90;;;;;;;15.36;92.88;101941.53;5069343;28;20396;-80
2022/07/06 00:52:45;;;;;;;6.45;1.95;;;;;;;15.37;92.72;101932.56;5069775;28;20066;-81
2022/07/06 00:55:14;;;;;;;8.68;2.60;;;;;;;15.34;92.70;101936.34;5054757;28;20040;-81
2022/07/06 00:57:41;;;;;;;4.75;2.05;;;;;;;15.32;92.74;101932.97;5069999;28;20538;-81
2022/07/06 01:00:09;;;;;;;13.98;2.83;;;;;;;15.33;92.50;101936.50;5070529;28;20037;-81
2022/07/06 01:02:36;;;;;;;8.20;2.47;;;;;;;15.32;92.58;101937.47;5054366;28;20086;-81
2022/07/06 01:05:07;;;;;;;9.52;2.53;;;;;;;15.29;92.14;101937.75;5072380;28;20429;-81
2022/07/06 01:07:34;;;;;;;5.88;1.95;;;;;;;15.25;92.61;101924.72;5055140;28;20157;-81
2022/07/06 01:10:00;;;;;;;13.68;3.22;;;;;;;15.21;92.69;101922.47;5054324;28;20039;-81
2022/07/06 01:12:26;;;;;;;6.95;1.95;;;;;;;15.15;92.67;101920.34;5039371;28;20024;-81
2022/07/06 01:14:53;;;;;;;7.80;2.63;;;;;;;15.14;92.88;101911.53;5054719;28;20127;-81
2022/07/06 01:17:19;;;;;;;12.15;2.92;;;;;;;15.08;92.90;101906.75;5039679;28;20043;-81
2022/07/06 01:19:44;;;;;;;10.35;2.10;;;;;;;15.05;93.12;101907.84;5055376;28;20455;-81
2022/07/06 01:22:10;;;;;;;11.27;2.38;;;;;;;15.02;93.14;101904.66;5053776;28;20036;-82
2022/07/06 01:24:38;;;;;;;14.13;2.70;;;;;;;14.99;93.11;101900.41;5065428;28;20024;-81
2022/07/06 01:27:05;;;;;;;12.90;3.67;;;;;;;14.96;93.27;101912.19;5069896;28;20116;-83
2022/07/06 01:29:32;;;;;;;13.43;3.03;;;;;;;14.93;93.17;101906.28;5053159;28;20477;-81
2022/07/06 01:31:58;;;;;;;9.40;2.75;;;;;;;14.91;93.43;101921.59;5063901;28;20020;-76
2022/07/06 01:34:25;;;;;;;10.60;2.28;;;;;;;14.92;93.57;101924.09;5067008;28;20095;-76
2022/07/06 01:36:52;;;;;;;13.10;3.05;;;;;;;14.90;93.64;101920.72;5058783;28;20401;-76
2022/07/06 01:39:18;;;;;;;11.25;2.70;;;;;;;14.89;93.62;101924.38;5066184;28;20454;-76
2022/07/06 01:41:44;;;;;;;9.75;2.58;;;;;;;14.88;93.61;101902.22;5052548;28;20107;-80
2022/07/06 01:44:10;;;;;;;10.10;2.80;;;;;;;14.91;93.55;101900.28;5050489;28;20120;-81
2022/07/06 01:46:38;;;;;;;16.48;3.85;;;;;;;14.88;93.62;101893.41;5070785;28;20365;-81
2022/07/06 01:49:05;;;;;;;13.52;2.70;;;;;;;14.84;93.61;101900.81;5037297;28;20047;-81
2022/07/06 01:51:32;;;;;;;10.93;2.83;;;;;;;14.84;93.72;101889.34;5053363;28;20536;-81
2022/07/06 01:53:58;;;;;;;10.10;2.75;;;;;;;14.85;93.62;101889.19;5054009;28;20037;-81
2022/07/06 01:56:25;;;;;;;9.18;2.72;;;;;;;14.85;93.51;101878.56;5033440;28;20033;-81
2022/07/06 01:58:57;;;;;;;12.20;3.53;;;;;;;14.84;93.48;101879.50;5047581;28;20032;-81
2022/07/06 02:01:23;;;;;;;15.98;3.20;;;;;;;14.82;93.58;101883.28;5051202;28;20039;-81
2022/07/06 02:03:49;;;;;;;14.15;3.17;;;;;;;14.83;93.51;101882.31;5051111;28;20028;-83
2022/07/06 02:06:16;;;;;;;10.05;3.15;;;;;;;14.81;93.48;101884.28;5038197;28;20416;-81
2022/07/06 02:08:45;;;;;;;10.45;2.30;;;;;;;14.76;93.96;101885.50;5050693;28;20031;-81
2022/07/06 02:11:11;;;;;;;13.40;3.33;;;;;;;14.73;93.86;101880.44;5052038;28;20570;-81
2022/07/06 02:13:39;;;;;;;12.25;3.35;;;;;;;14.72;93.79;101883.25;5066348;28;20040;-81
2022/07/06 02:16:09;;;;;;;8.07;2.17;;;;;;;14.70;93.62;101882.56;5050761;28;20021;-81
2022/07/06 02:18:36;;;;;;;12.48;2.67;;;;;;;14.65;93.69;101874.97;5032224;28;20042;-81
2022/07/06 02:21:04;;;;;;;11.45;3.25;;;;;;;14.62;93.69;101880.56;5068753;28;20036;-81
2022/07/06 02:23:29;;;;;;;10.25;2.65;;;;;;;14.60;93.37;101871.88;5053584;28;20028;-81
2022/07/06 02:25:56;;;;;;;13.23;2.42;;;;;;;14.60;93.82;101869.22;5070790;28;20179;-81
2022/07/06 02:28:23;;;;;;;7.75;2.00;;;;;;;14.61;93.36;101869.06;5071349;28;20044;-81
2022/07/06 02:30:49;;;;;;;14.88;2.53;;;;;;;14.64;93.20;101870.63;5043379;28;20043;-81
2022/07/06 02:33:15;;;;;;;15.20;2.53;;;;;;;14.63;92.80;101867.13;5052926;28;20067;-81
2022/07/06 02:35:44;;;;;;;10.57;2.45;;;;;;;14.64;92.70;101874.13;5055712;28;20028;-81
2022/07/06 02:38:11;;;;;;;12.18;2.47;;;;;;;14.63;92.74;101876.94;5060943;28;20041;-81
2022/07/06 02:40:38;;;;;;;7.30;2.30;;;;;;;14.62;92.73;101868.09;5050923;28;20040;-81
2022/07/06 02:43:05;;;;;;;14.63;2.50;;;;;;;14.63;92.55;101882.25;5023830;28;20075;-80
2022/07/06 02:45:31;;;;;;;15.43;3.50;;;;;;;14.64;92.51;101878.59;5050506;28;20370;-81
2022/07/06 02:47:57;;;;;;;10.82;2.20;;;;;;;14.63;92.44;101876.94;5064235;28;20043;-80
2022/07/06 02:50:25;;;;;;;10.68;2.17;;;;;;;14.61;92.46;101877.06;5052791;28;20067;-81
2022/07/06 02:52:52;;;;;;;6.82;1.60;;;;;;;14.60;92.42;101872.72;5053045;28;20123;-81
2022/07/06 02:55:18;;;;;;;13.82;2.55;;;;;;;14.60;92.41;101878.06;5036852;28;20040;-81
2022/07/06 02:57:44;;;;;;;9.02;2.10;;;;;;;14.61;92.39;101879.72;5036653;28;20450;-81
2022/07/06 03:00:12;;;;;;;8.80;1.73;;;;;;;14.61;92.25;101869.06;5067265;28;20480;-81
2022/07/06 03:02:39;;;;;;;11.20;2.20;;;;;;;14.59;92.29;101872.84;5036382;28;20036;-81
2022/07/06 03:05:06;;;;;;;11.05;2.22;;;;;;;14.60;92.54;101867.41;5050061;28;20105;-81
2022/07/06 03:07:32;;;;;;;11.20;2.72;;;;;;;14.62;92.35;101868.09;5067244;28;20028;-81
2022/07/06 03:09:58;;;;;;;13.00;2.45;;;;;;;14.61;92.13;101865.56;5033450;28;20090;-81
2022/07/06 03:12:25;;;;;;;13.02;2.03;;;;;;;14.63;92.33;101868.94;5069365;28;20503;-81
2022/07/06 03:14:50;;;;;;;10.38;2.15;;;;;;;14.59;92.25;101870.16;5071331;28;20032;-81
2022/07/06 03:17:16;;;;;;;10.45;2.03;;;;;;;14.62;92.23;101877.91;5051363;28;20039;-75
2022/07/06 03:19:42;;;;;;;10.20;2.42;;;;;;;14.64;92.21;101878.59;5053334;28;20042;-76
2022/07/06 03:22:09;;;;;;;10.65;2.08;;;;;;;14.66;92.13;101886.44;5051378;28;20111;-81
2022/07/06 03:24:34;;;;;;;8.07;2.65;;;;;;;14.68;92.03;101874.72;5071865;28;20098;-80
2022/07/06 03:27:00;;;;;;;11.85;1.80;;;;;;;14.74;91.88;101873.31;5044453;28;20032;-81
2022/07/06 03:29:26;;;;;;;12.55;2.45;;;;;;;14.78;91.78;101876.53;5054361;28;20024;-80
2022/07/06 03:31:52;;;;;;;8.43;1.55;;;;;;;14.81;91.63;101885.09;5067641;28;20032;-81
2022/07/06 03:34:18;;;;;;;11.13;2.25;;;;;;;14.85;91.37;101875.88;5053970;28;20488;-81
2022/07/06 03:36:44;;;;;;;8.05;1.83;;;;;;;14.88;91.40;101882.75;5069575;28;20029;-81
2022/07/06 03:39:10;;;;;;;8.95;2.25;;;;;;;14.87;91.15;101892.53;5066863;28;20037;-81
2022/07/06 03:41:37;;;;;;;9.32;2.30;;;;;;;14.83;91.27;101884.97;5048891;28;20047;-81
2022/07/06 03:44:03;;;;;;;9.60;1.92;;;;;;;14.81;91.18;101884.28;5074712;28;20074;-81
2022/07/06 03:46:30;;;;;;;8.23;1.52;;;;;;;14.81;91.43;101886.94;5074803;28;20078;-81
2022/07/06 03:48:56;;;;;;;7.90;1.60;;;;;;;14.77;91.23;101881.00;5064183;28;20048;-81
2022/07/06 03:51:23;;;;;;;8.10;1.55;;;;;;;14.75;91.29;101882.97;5074252;28;20542;-80
2022/07/06 03:53:49;;;;;;;6.28;1.17;;;;;;;14.74;91.29;101886.63;5041904;28;20086;-81
2022/07/06 03:56:27;;;;;;;10.40;1.20;;;;;;;14.72;90.88;101877.91;5058059;28;20055;-81
2022/07/06 03:58:59;;;;;;;14.05;1.80;;;;;;;14.63;90.97;101885.75;5058023;28;20086;-81
2022/07/06 04:01:25;;;;;;;6.95;1.90;;;;;;;14.57;91.15;101883.63;5040603;28;20108;-76
2022/07/06 04:03:51;;;;;;;6.68;1.42;;;;;;;14.52;91.14;101888.53;5055129;28;20373;-76
2022/07/06 04:06:17;;;;;;;5.75;1.38;;;;;;;14.49;91.18;101888.78;5074161;28;20032;-76
2022/07/06 04:08:44;;;;;;;7.72;1.25;;;;;;;14.44;91.13;101898.97;5075437;28;20064;-76
2022/07/06 04:11:10;;;;;;;6.95;1.63;;;;;;;14.38;91.26;101903.84;5056523;28;20085;-76
2022/07/06 04:13:38;;;;;;;6.85;1.10;;;;;;;14.32;91.52;101895.56;5054683;28;20039;-75
2022/07/06 04:16:06;;;;;;;5.57;1.48;;;;;;;14.24;91.72;101896.22;5072713;28;20032;-76
2022/07/06 04:18:31;;;;;;;7.50;1.23;;;;;;;14.19;91.92;101888.66;5056217;28;20068;-81
2022/07/06 04:20:58;;;;;;;6.60;1.45;;;;;;;14.16;92.16;101891.56;5070843;28;20071;-81
2022/07/06 04:23:25;;;;;;;8.18;1.58;;;;;;;14.16;92.28;101893.41;5055260;28;20176;-81
2022/07/06 04:25:52;;;;;;;9.65;1.55;;;;;;;14.18;92.38;101892.28;5056371;28;20043;-81
2022/07/06 04:28:18;;;;;;;5.45;1.13;;;;;;;14.19;92.31;101895.81;5053012;28;20064;-81
2022/07/06 04:30:45;;;;;;;7.28;1.55;;;;;;;14.17;92.16;101887.09;5051381;28;20503;-81
2022/07/06 04:33:15;;;;;;;8.93;1.40;;;;;;;14.18;92.51;101880.81;5054716;28;20043;-76
2022/07/06 04:35:43;;;;;;;9.98;1.48;;;;;;;14.19;92.42;101880.66;5055179;28;20040;-76
2022/07/06 04:38:09;;;;;;;9.63;1.63;;;;;;;14.20;92.52;101878.88;5063229;28;20066;-81
2022/07/06 04:40:35;;;;;;;8.25;1.35;;;;;;;14.26;92.45;101888.97;5052478;28;20036;-81
2022/07/06 04:43:06;;;;;;;8.65;1.60;;;;;;;14.29;92.22;101879.88;5035554;28;20385;-81
2022/07/06 04:45:33;;;;;;;7.63;1.50;;;;;;;14.32;92.25;101888.44;5054496;28;20063;-81
2022/07/06 04:48:00;;;;;;;8.38;1.75;;;;;;;14.34;92.16;101878.50;5055478;28;20136;-80
2022/07/06 04:50:26;;;;;;;11.32;1.67;;;;;;;14.35;92.07;101884.69;5048295;28;20036;-80
2022/07/06 04:52:54;;;;;;;8.40;1.35;;;;;;;14.35;92.13;101884.69;5072408;28;20072;-76
2022/07/06 04:55:21;;;;;;;10.40;1.23;;;;;;;14.35;92.28;101880.19;5054298;28;20481;-76
2022/07/06 04:57:47;;;;;;;6.97;1.35;;;;;;;14.38;92.27;101881.75;5068330;28;20029;-75
2022/07/06 05:00:15;;;;;;;8.63;1.10;;;;;;;14.41;92.16;101870.00;5048824;28;20439;-76
2022/07/06 05:02:42;;;;;;;6.93;1.42;;;;;;;14.45;92.46;101882.03;5072019;28;20060;-81
2022/07/06 05:05:09;;;;;;;9.48;1.42;;;;;;;14.44;92.41;101883.88;5055493;28;20105;-81
2022/07/06 05:07:39;;;;;;;5.85;1.58;;;;;;;14.44;92.67;101878.56;5039188;28;20361;-81
2022/07/06 05:10:09;;;;;;;5.90;1.13;;;;;;;14.43;92.71;101878.69;5052228;28;20500;-81
2022/07/06 05:12:37;;;;;;;7.63;1.58;;;;;;;14.43;92.83;101878.69;5073133;28;20032;-81
2022/07/06 05:15:03;;;;;;;7.78;1.63;;;;;;;14.49;92.89;101878.16;5053067;28;20045;-81
2022/07/06 05:17:30;;;;;;;6.45;1.75;;;;;;;14.51;92.77;101876.16;5071558;28;20388;-76
2022/07/06 05:19:58;;;;;;;3.17;1.00;;;;;;;14.54;92.87;101883.06;5055447;28;20480;-76
2022/07/06 05:22:24;;;;;;;7.75;1.15;;;;;;;14.55;92.94;101880.25;5053761;28;20040;-81
2022/07/06 05:24:51;;;;;;;7.60;1.45;;;;;;;14.55;92.89;101884.75;5072661;28;20119;-81
2022/07/06 05:27:18;;;;;;;5.13;1.17;;;;;;;14.58;93.04;101879.16;5054023;28;20040;-81
2022/07/06 05:29:44;;;;;;;9.68;1.33;;;;;;;14.61;93.01;101874.41;5055100;28;20564;-80
2022/07/06 05:32:11;;;;;;;10.25;1.27;;;;;;;14.63;92.94;101875.13;5064715;28;20473;-81
2022/07/06 05:34:38;;;;;;;12.93;1.95;;;;;;;14.66;92.94;101876.66;5037784;28;20082;-81
2022/07/06 05:37:04;;;;;;;5.35;1.00;;;;;;;14.67;93.20;101878.31;5055348;28;20047;-81
2022/07/06 05:39:30;;;;;;;7.80;1.20;;;;;;;14.66;93.46;101874.00;5069651;28;20032;-80
2022/07/06 05:41:56;;;;;;;4.43;1.13;;;;;;;14.69;93.43;101883.50;5055573;28;20044;-81
2022/07/06 05:44:22;;;;;;;5.43;1.17;;;;;;;14.69;93.52;101886.16;5071693;28;20090;-81
2022/07/06 05:46:48;;;;;;;9.30;1.48;;;;;;;14.69;93.75;101886.16;5055241;28;20036;-81
2022/07/06 05:52:00;;;;;;;7.35;1.25;;;;;;;14.76;93.83;101890.00;5033735;28;20044;-81
2022/07/06 05:54:27;;;;;;;8.02;1.45;;;;;;;14.78;93.83;101881.88;5071149;28;20393;-79
2022/07/06 05:56:53;;;;;;;5.05;1.23;;;;;;;14.77;93.87;101889.00;4975727;28;20072;-76
2022/07/06 05:59:20;;;;;;;8.18;1.20;;;;;;;14.78;94.00;101877.38;5053962;28;20040;-76
2022/07/06 06:01:46;;;;;;;5.75;1.02;;;;;;;14.81;93.93;101882.44;5043664;28;20147;-81
2022/07/06 06:04:16;;;;;;;5.22;1.02;;;;;;;14.82;93.95;101885.97;5071037;28;20044;-82
2022/07/06 06:06:42;;;;;;;4.38;1.15;;;;;;;14.85;94.34;101878.56;5046165;28;20033;-76
2022/07/06 06:09:09;;;;;;;5.18;1.30;;;;;;;14.88;94.31;101877.41;5070848;28;20127;-76
2022/07/06 06:11:34;;;;;;;5.38;0.70;;;;;;;14.89;94.33;101884.44;5068866;28;20040;-76
2022/07/06 06:14:00;;;;;;;4.20;1.02;;;;;;;14.91;94.16;101885.13;5054150;28;20593;-75
2022/07/06 06:16:28;;;;;;;5.82;1.30;;;;;;;14.92;94.16;101884.19;5072037;28;20036;-81
2022/07/06 06:18:55;;;;;;;5.10;1.05;;;;;;;14.93;94.16;101877.84;5055351;28;20037;-81
2022/07/06 06:21:20;;;;;;;8.18;1.55;;;;;;;14.97;94.26;101886.41;5050929;28;20048;-81
2022/07/06 06:23:46;;;;;;;6.13;1.13;;;;;;;14.97;94.28;101884.56;5055629;28;20028;-81
2022/07/06 06:26:12;;;;;;;5.07;1.15;;;;;;;15.00;94.11;101884.31;5072534;28;20036;-81
2022/07/06 06:28:38;;;;;;;5.25;0.77;;;;;;;15.04;93.87;101881.38;5073329;28;20028;-81
2022/07/06 06:31:04;;;;;;;8.80;1.40;;;;;;;15.10;93.86;101886.97;5037584;28;20481;-81
2022/07/06 06:33:30;;;;;;;6.63;1.20;;;;;;;15.13;93.62;101888.53;5055686;28;20031;-76
2022/07/06 06:35:56;;;;;;;7.80;1.45;;;;;;;15.22;93.73;101881.53;5073316;28;20102;-76
2022/07/06 06:38:25;;;;;;;5.05;0.88;;;;;;;15.24;93.11;101891.06;5072629;28;20039;-81
2022/07/06 06:40:52;;;;;;;7.38;0.88;;;;;;;15.27;93.08;101892.63;5052752;28;20036;-81
2022/07/06 06:43:18;;;;;;;5.05;0.93;;;;;;;15.32;92.71;101886.88;5072829;28;20048;-81
2022/07/06 06:46:04;;;;;;;6.03;1.30;;;;;;;15.40;92.71;101894.16;5051968;28;20048;-81
2022/07/06 06:48:31;;;;;;;7.93;1.23;;;;;;;15.43;92.04;101892.03;5071613;28;20074;-80
2022/07/06 06:50:57;;;;;;;3.10;1.23;;;;;;;15.47;91.73;101897.94;5072583;28;20033;-81
2022/07/06 06:53:23;;;;;;;10.95;1.65;;;;;;;15.52;91.40;101885.03;5071676;28;20400;-81
2022/07/06 06:55:49;;;;;;;3.28;0.82;;;;;;;15.54;91.21;101890.22;5055727;28;20028;-81
2022/07/06 06:58:15;;;;;;;2.30;0.73;;;;;;;15.60;90.90;101890.50;5017877;28;20044;-81
2022/07/06 07:00:43;;;;;;;3.60;0.90;;;;;;;15.62;90.63;101888.50;5054267;28;20039;-81
2022/07/06 07:03:10;;;;;;;3.50;1.10;;;;;;;15.69;90.26;101890.59;5059139;28;20032;-75
2022/07/06 07:05:35;;;;;;;4.65;1.13;;;;;;;15.74;90.08;101893.69;5053131;28;20111;-76
2022/07/06 07:08:02;;;;;;;6.60;1.17;;;;;;;15.80;89.48;101890.44;5052897;28;20548;-81
2022/07/06 07:10:28;;;;;;;2.42;0.60;;;;;;;15.83;88.66;101892.81;5070482;28;20076;-81
2022/07/06 07:12:54;;;;;;;3.45;1.10;;;;;;;15.78;87.98;101897.78;5070824;28;20059;-81
2022/07/06 07:15:20;;;;;;;4.20;0.82;;;;;;;15.77;87.23;101896.06;5053157;28;20029;-81
2022/07/06 07:17:45;;;;;;;5.82;0.70;;;;;;;15.80;87.41;101894.97;5068738;28;20036;-81
2022/07/06 07:20:11;;;;;;;7.13;0.90;;;;;;;15.87;87.28;101888.06;5068769;28;20041;-81
2022/07/06 07:22:38;;;;;;;4.53;0.95;;;;;;;15.97;87.00;101893.38;5052316;28;20036;-81
2022/07/06 07:25:05;;;;;;;4.05;0.88;;;;;;;16.00;86.14;101887.78;5067643;28;20032;-81
2022/07/06 07:27:30;;;;;;;3.92;0.90;;;;;;;16.08;86.20;101887.06;5069493;28;20123;-81
2022/07/06 07:29:56;;;;;;;6.13;0.90;;;;;;;16.18;85.26;101881.69;5052207;28;20111;-81
2022/07/06 07:32:22;;;;;;;3.15;0.77;;;;;;;16.23;84.78;101877.59;5064603;28;20043;-80
2022/07/06 07:34:48;;;;;;;3.13;0.60;;;;;;;16.28;84.38;101886.97;5063030;28;20041;-81
2022/07/06 07:37:14;;;;;;;3.67;0.75;;;;;;;16.24;83.42;101884.59;5068061;28;20033;-81
2022/07/06 07:39:40;;;;;;;2.30;0.68;;;;;;;16.18;83.01;101887.84;5069452;28;20069;-81
2022/07/06 07:42:06;;;;;;;3.95;1.00;;;;;;;16.15;83.24;101895.31;5051918;28;20032;-81
2022/07/06 07:44:32;;;;;;;4.22;0.90;;;;;;;16.08;83.09;101895.91;5035028;28;20040;-81
2022/07/06 07:46:57;;;;;;;5.13;1.08;;;;;;;16.02;83.06;101888.50;5052272;28;20147;-81
2022/07/06 07:49:23;;;;;;;2.17;0.90;;;;;;;15.92;83.34;101901.81;5052269;28;20479;-81
2022/07/06 07:51:49;;;;;;;5.05;1.02;;;;;;;15.84;83.56;101894.53;5051615;28;20500;-82
2022/07/06 07:54:15;;;;;;;6.60;0.80;;;;;;;15.76;83.84;101902.41;5064657;28;20039;-81
2022/07/06 07:56:41;;;;;;;3.67;0.80;;;;;;;15.73;84.21;101906.19;5056946;28;20028;-81
2022/07/06 07:59:08;;;;;;;4.07;0.85;;;;;;;15.66;84.17;101901.56;5060090;28;20380;-81
2022/07/06 08:01:35;;;;;;;4.28;1.08;;;;;;;15.62;84.77;101912.50;5035722;28;20039;-81
2022/07/06 08:04:02;;;;;;;5.05;1.27;;;;;;;15.65;84.80;101906.06;5051144;28;20123;-81
2022/07/06 08:06:28;;;;;;;4.10;1.00;;;;;;;15.69;84.91;101912.78;5068604;28;20032;-81
2022/07/06 08:08:54;;;;;;;2.03;0.98;;;;;;;15.74;84.83;101913.19;5040573;28;20032;-81
2022/07/06 08:11:20;;;;;;;6.13;1.20;;;;;;;15.78;84.83;101907.59;5070354;28;20489;-81
2022/07/06 08:13:46;;;;;;;5.00;0.85;;;;;;;15.82;84.87;101901.81;5071022;28;20031;-81
2022/07/06 08:16:11;;;;;;;4.95;0.70;;;;;;;15.86;84.54;101905.06;5070100;28;20384;-81
2022/07/06 08:18:37;;;;;;;4.47;0.70;;;;;;;15.79;84.02;101904.78;5035247;28;20035;-76
2022/07/06 08:21:03;;;;;;;6.75;1.27;;;;;;;15.72;84.12;101901.81;5070400;28;20045;-75
2022/07/06 08:23:29;;;;;;;3.03;0.80;;;;;;;15.72;84.04;101903.66;5052623;28;20032;-81
2022/07/06 08:25:55;;;;;;;2.45;0.60;;;;;;;15.73;84.38;101903.53;5046008;28;20108;-81
2022/07/06 08:28:21;;;;;;;4.07;0.60;;;;;;;15.72;83.51;101904.50;5064267;28;20037;-76
2022/07/06 08:30:47;;;;;;;4.38;0.70;;;;;;;15.71;83.35;101893.97;5051436;28;20028;-76
2022/07/06 08:33:14;;;;;;;2.97;1.25;;;;;;;15.78;83.24;101891.59;5015388;28;20040;-81
2022/07/06 08:35:40;;;;;;;2.65;0.85;;;;;;;15.83;82.87;101890.16;5072110;28;20048;-81
2022/07/06 08:38:06;;;;;;;6.90;1.10;;;;;;;15.91;82.76;101889.44;5071230;28;20064;-81
2022/07/06 08:40:39;;;;;;;2.88;0.73;;;;;;;15.96;82.07;101881.00;5051840;28;20032;-81
2022/07/06 08:43:05;;;;;;;3.38;0.90;;;;;;;15.98;81.97;101895.94;5054203;28;20119;-80
2022/07/06 08:45:34;;;;;;;2.85;0.80;;;;;;;16.01;81.23;101877.97;5053210;28;20107;-81
2022/07/06 08:48:06;;;;;;;5.00;0.80;;;;;;;16.01;80.81;101885.97;5072108;28;20074;-76
2022/07/06 08:50:33;;;;;;;2.97;0.82;;;;;;;16.02;81.11;101888.50;5071266;28;20056;-76
2022/07/06 08:53:00;;;;;;;8.27;1.60;;;;;;;16.10;81.08;101885.09;5078013;28;20119;-80
2022/07/06 08:55:27;;;;;;;2.90;0.70;;;;;;;16.21;80.58;101876.06;5072623;28;20476;-82
2022/07/06 08:57:55;;;;;;;2.67;0.70;;;;;;;16.32;80.00;101870.53;5069801;28;20033;-81
2022/07/06 09:00:21;;;;;;;2.22;0.65;;;;;;;16.45;79.86;101880.84;5055172;28;20505;-81
2022/07/06 09:02:50;;;;;;;3.28;0.50;;;;;;;16.60;78.59;101867.88;5067292;28;20064;-81
2022/07/06 09:05:17;;;;;;;3.92;0.52;;;;;;;16.64;77.89;101867.56;5073424;28;20043;-81
2022/07/06 09:07:49;;;;;;;3.80;0.70;;;;;;;16.53;77.48;101879.28;5071318;28;20079;-81
2022/07/06 09:10:17;;;;;;;3.33;0.80;;;;;;;16.60;78.28;101875.03;5055554;28;20129;-81
2022/07/06 09:12:43;;;;;;;4.80;1.00;;;;;;;16.60;78.35;101873.22;5056784;28;20458;-80
2022/07/06 09:15:09;;;;;;;3.78;0.73;;;;;;;16.59;78.28;101873.34;5073120;28;20036;-81
2022/07/06 09:17:39;;;;;;;1.88;0.60;;;;;;;16.68;78.45;101885.81;5054201;28;20033;-81
2022/07/06 09:20:10;;;;;;;3.92;0.60;;;;;;;16.81;78.63;101879.25;5071340;28;20034;-81
2022/07/06 09:22:37;;;;;;;3.13;0.73;;;;;;;16.84;78.61;101879.81;5054872;28;20029;-81
2022/07/06 09:25:09;;;;;;;5.38;0.80;;;;;;;16.81;78.56;101874.78;5036043;28;20540;-81
2022/07/06 09:27:54;;;;;;;4.90;0.95;;;;;;;16.86;78.83;101868.97;5054571;28;20097;-80
2022/07/06 09:30:21;;;;;;;5.95;0.77;;;;;;;16.90;79.14;101869.53;5053951;28;20536;-80
2022/07/06 09:32:52;;;;;;;8.90;1.05;;;;;;;16.87;78.82;101862.63;5037850;28;20112;-81
2022/07/06 09:35:23;;;;;;;2.38;0.57;;;;;;;16.79;78.80;101870.56;5056384;28;20036;-81
2022/07/06 09:38:06;;;;;;;5.75;1.20;;;;;;;16.72;79.48;101871.16;5061756;28;20025;-81
2022/07/06 09:40:35;;;;;;;1.35;0.70;;;;;;;16.87;79.95;101859.97;5051783;28;20032;-81
2022/07/06 09:43:12;;;;;;;4.68;0.75;;;;;;;16.90;78.26;101861.50;5067585;28;20032;-76
2022/07/06 09:45:41;;;;;;;8.60;1.60;;;;;;;16.92;78.67;101864.84;5035052;28;20036;-76
2022/07/06 09:48:09;;;;;;;6.65;1.25;;;;;;;16.96;78.73;101871.59;5056554;28;20037;-81
2022/07/06 09:50:40;;;;;;;4.93;1.33;;;;;;;16.99;78.84;101865.94;5050798;28;20590;-81
2022/07/06 09:53:07;;;;;;;3.70;0.85;;;;;;;17.11;79.11;101863.91;5049352;28;20025;-80
2022/07/06 09:55:33;;;;;;;4.72;1.23;;;;;;;17.21;78.79;101866.50;5064671;28;20025;-80
2022/07/06 09:57:58;;;;;;;4.22;1.00;;;;;;;17.19;78.25;101855.97;5063039;28;20371;-81
2022/07/06 10:00:24;;;;;;;5.60;1.13;;;;;;;17.23;78.02;101857.31;4977731;28;20925;-81
2022/07/06 10:02:51;;;;;;;4.78;1.23;;;;;;;17.33;78.02;101843.88;5038823;28;20029;-81
2022/07/06 10:05:20;;;;;;;4.57;1.10;;;;;;;17.36;76.94;101840.91;5066232;28;20041;-81
2022/07/06 10:07:50;;;;;;;5.80;0.90;;;;;;;17.38;76.86;101834.53;5050174;28;20036;-81
2022/07/06 10:10:17;;;;;;;3.85;1.17;;;;;;;17.46;76.81;101846.16;5050949;28;20127;-81
2022/07/06 10:12:44;;;;;;;6.35;1.33;;;;;;;17.61;76.32;101830.38;5051014;28;20037;-81
2022/07/06 10:15:11;;;;;;;5.22;0.98;;;;;;;17.71;76.21;101838.28;5052067;28;20045;-81
2022/07/06 10:17:39;;;;;;;4.32;1.27;;;;;;;17.79;75.78;101844.72;5034324;28;20112;-81
2022/07/06 10:20:06;;;;;;;6.20;1.27;;;;;;;17.76;75.49;101837.00;5050992;28;20035;-81
2022/07/06 10:22:34;;;;;;;6.32;1.35;;;;;;;17.84;75.53;101848.56;5049423;28;20384;-81
2022/07/06 10:25:02;;;;;;;6.90;2.08;;;;;;;17.80;75.35;101844.56;5046801;28;20033;-81
2022/07/06 10:27:28;;;;;;;7.75;1.58;;;;;;;17.72;75.47;101844.50;5044350;28;20059;-76
2022/07/06 10:29:54;;;;;;;7.10;1.50;;;;;;;17.92;76.16;101849.59;5047932;28;20041;-76
2022/07/06 10:32:22;;;;;;;6.38;1.63;;;;;;;18.14;75.82;101852.78;5045425;28;20036;-81
2022/07/06 10:34:49;;;;;;;4.13;1.23;;;;;;;18.18;74.85;101863.00;5046144;28;20079;-81
2022/07/06 10:37:25;;;;;;;6.53;1.40;;;;;;;18.30;74.30;101858.19;5050545;28;20060;-81
2022/07/06 10:42:43;;;;;;;4.30;1.00;;;;;;;18.60;73.56;101858.63;5044986;28;20047;-81
2022/07/06 10:45:15;;;;;;;4.82;1.08;;;;;;;18.73;72.62;101857.31;5040207;28;20080;-80
2022/07/06 10:47:42;;;;;;;6.28;1.92;;;;;;;18.83;72.70;101859.84;5039521;28;20505;-81
2022/07/06 10:50:08;;;;;;;4.53;1.00;;;;;;;18.87;72.61;101841.63;5044666;28;20111;-81
2022/07/06 10:52:58;;;;;;;5.35;1.13;;;;;;;18.95;71.54;101849.66;5049574;28;20457;-81
2022/07/06 10:55:35;;;;;;;7.40;1.33;;;;;;;18.98;71.57;101860.06;5049908;28;20037;-81
2022/07/06 10:58:02;;;;;;;7.00;1.33;;;;;;;18.96;72.11;101867.41;5033594;28;20075;-81
2022/07/06 11:00:54;;;;;;;7.88;1.48;;;;;;;18.95;71.74;101858.53;5033102;28;20044;-81
2022/07/06 11:03:56;;;;;;;6.28;1.45;;;;;;;18.77;71.70;101868.53;5047065;28;20028;-77
2022/07/06 11:06:24;;;;;;;4.10;1.02;;;;;;;18.67;72.53;101869.53;5049483;28;20029;-81
2022/07/06 11:08:51;;;;;;;5.35;1.15;;;;;;;18.63;72.66;101870.00;5048790;28;20033;-81
2022/07/06 11:11:20;;;;;;;9.88;1.85;;;;;;;18.55;72.80;101866.31;5051129;28;20040;-81
2022/07/06 11:13:50;;;;;;;6.88;2.00;;;;;;;18.51;72.85;101870.31;5026538;28;20474;-77
2022/07/06 11:16:18;;;;;;;8.30;1.98;;;;;;;18.48;73.21;101867.97;5045096;28;20033;-76
2022/07/06 11:18:49;;;;;;;6.78;1.45;;;;;;;18.41;73.44;101866.94;5040274;28;20029;-76
2022/07/06 11:21:23;;;;;;;8.95;1.23;;;;;;;18.35;73.76;101866.56;5048973;28;20477;-76
2022/07/06 11:23:50;;;;;;;4.82;1.38;;;;;;;18.26;74.24;101869.38;5063117;28;20029;-81
2022/07/06 11:26:17;;;;;;;6.50;1.65;;;;;;;18.20;74.37;101869.00;5064585;28;20051;-81
2022/07/06 11:28:47;;;;;;;4.57;1.25;;;;;;;18.17;74.65;101873.88;5033565;28;20382;-81
2022/07/06 11:31:14;;;;;;;7.80;1.77;;;;;;;18.08;75.21;101862.22;5049210;28;20047;-81